Terminal Aerodrome Forecast
Issued by NWS

Home | Current Version | Previous Version | Text Only | Print | Product List | Glossary On
Versions: 1 2 3 4 5 6 7 8 9 10 11 12
337
FTUS44 KLZK 110520
TAFBPK
TAF
KBPK 110520Z 1106/1206 24003KT P6SM SKC
     FM111600 24013G22KT P6SM SKC
     FM112000 27012G20KT P6SM SKC
     FM120000 31007KT P6SM SKC=

USA.gov is the U.S. government's official web portal to all federal, state and local government web resources and services.